<?xml version="1.0" encoding="UTF-8" standalone="no" ?>
<gpx xmlns="http://www.topografix.com/GPX/1/1" xmlns:xsi="http://www.w3.org/2001/XMLSchema-instance" xsi:schemaLocation="http://www.topografix.com/GPX/1/1 http://www.topografix.com/GPX/1/1/gpx.xsd" version="1.1" creator="VisuGPX - https://www.visugpx.com">
  <metadata>
    <name>cleton ride 2</name>
  </metadata>
  <trk>
    <name><![CDATA[Gravel au soleil...]]></name>
    <extensions>
      <line xmlns="http://www.topografix.com/GPX/gpx_style/0/2">
        <color>FF0000</color>
        <width>4</width>
      </line>
    </extensions>
    <trkseg>
      <trkpt lat="47.22243" lon="-1.62628">
        <ele>75.8</ele>
        <time>2019-08-13T11:25:18Z</time>
      </trkpt>
      <trkpt lat="47.22252" lon="-1.62624">
        <ele>76.4</ele>
        <time>2019-08-13T11:25:17Z</time>
      </trkpt>
      <trkpt lat="47.22283" lon="-1.62614">
        <ele>77.8</ele>
        <time>2019-08-13T11:25:14Z</time>
      </trkpt>
      <trkpt lat="47.2232" lon="-1.62599">
        <ele>79.2</ele>
        <time>2019-08-13T11:25:10Z</time>
      </trkpt>
      <trkpt lat="47.22333" lon="-1.62585">
        <ele>79.6</ele>
        <time>2019-08-13T11:25:08Z</time>
      </trkpt>
      <trkpt lat="47.22341" lon="-1.62562">
        <ele>79.8</ele>
        <time>2019-08-13T11:25:06Z</time>
      </trkpt>
      <trkpt lat="47.22351" lon="-1.6254">
        <ele>80.2</ele>
        <time>2019-08-13T11:25:04Z</time>
      </trkpt>
      <trkpt lat="47.22362" lon="-1.62518">
        <ele>81.4</ele>
        <time>2019-08-13T11:25:02Z</time>
      </trkpt>
      <trkpt lat="47.22372" lon="-1.62495">
        <ele>82.8</ele>
        <time>2019-08-13T11:25:00Z</time>
      </trkpt>
      <trkpt lat="47.22385" lon="-1.62478">
        <ele>82.8</ele>
        <time>2019-08-13T11:24:58Z</time>
      </trkpt>
      <trkpt lat="47.22395" lon="-1.62474">
        <ele>82.6</ele>
        <time>2019-08-13T11:24:57Z</time>
      </trkpt>
      <trkpt lat="47.22448" lon="-1.62456">
        <ele>81.8</ele>
        <time>2019-08-13T11:24:50Z</time>
      </trkpt>
      <trkpt lat="47.22454" lon="-1.62457">
        <ele>81.6</ele>
        <time>2019-08-13T11:24:49Z</time>
      </trkpt>
      <trkpt lat="47.2246" lon="-1.62463">
        <ele>81.4</ele>
        <time>2019-08-13T11:24:48Z</time>
      </trkpt>
      <trkpt lat="47.22468" lon="-1.62479">
        <ele>81.2</ele>
        <time>2019-08-13T11:24:46Z</time>
      </trkpt>
      <trkpt lat="47.22473" lon="-1.62497">
        <ele>81</ele>
        <time>2019-08-13T11:24:43Z</time>
      </trkpt>
      <trkpt lat="47.22484" lon="-1.62534">
        <ele>80.4</ele>
        <time>2019-08-13T11:24:38Z</time>
      </trkpt>
      <trkpt lat="47.22499" lon="-1.62578">
        <ele>79.4</ele>
        <time>2019-08-13T11:24:34Z</time>
      </trkpt>
      <trkpt lat="47.2251" lon="-1.62599">
        <ele>79.2</ele>
        <time>2019-08-13T11:24:32Z</time>
      </trkpt>
      <trkpt lat="47.22557" lon="-1.62651">
        <ele>79.6</ele>
        <time>2019-08-13T11:24:26Z</time>
      </trkpt>
      <trkpt lat="47.22576" lon="-1.62687">
        <ele>79.2</ele>
        <time>2019-08-13T11:24:22Z</time>
      </trkpt>
      <trkpt lat="47.22579" lon="-1.62697">
        <ele>79.2</ele>
        <time>2019-08-13T11:24:21Z</time>
      </trkpt>
      <trkpt lat="47.22582" lon="-1.62709">
        <ele>79.4</ele>
        <time>2019-08-13T11:24:20Z</time>
      </trkpt>
      <trkpt lat="47.22599" lon="-1.62796">
        <ele>79.4</ele>
        <time>2019-08-13T11:24:13Z</time>
      </trkpt>
      <trkpt lat="47.22606" lon="-1.62821">
        <ele>79.4</ele>
        <time>2019-08-13T11:24:11Z</time>
      </trkpt>
      <trkpt lat="47.2262" lon="-1.6285">
        <ele>79.8</ele>
        <time>2019-08-13T11:24:08Z</time>
      </trkpt>
      <trkpt lat="47.22625" lon="-1.6287">
        <ele>79.8</ele>
        <time>2019-08-13T11:24:06Z</time>
      </trkpt>
      <trkpt lat="47.22641" lon="-1.62953">
        <ele>79.6</ele>
        <time>2019-08-13T11:23:59Z</time>
      </trkpt>
      <trkpt lat="47.22653" lon="-1.63034">
        <ele>80.2</ele>
        <time>2019-08-13T11:23:53Z</time>
      </trkpt>
      <trkpt lat="47.22659" lon="-1.63061">
        <ele>81.2</ele>
        <time>2019-08-13T11:23:51Z</time>
      </trkpt>
      <trkpt lat="47.2267" lon="-1.63098">
        <ele>81</ele>
        <time>2019-08-13T11:23:48Z</time>
      </trkpt>
      <trkpt lat="47.22673" lon="-1.63125">
        <ele>81.4</ele>
        <time>2019-08-13T11:23:46Z</time>
      </trkpt>
      <trkpt lat="47.22685" lon="-1.63177">
        <ele>81.2</ele>
        <time>2019-08-13T11:23:42Z</time>
      </trkpt>
      <trkpt lat="47.22702" lon="-1.63253">
        <ele>81.6</ele>
        <time>2019-08-13T11:23:36Z</time>
      </trkpt>
      <trkpt lat="47.2272" lon="-1.63328">
        <ele>81.8</ele>
        <time>2019-08-13T11:23:30Z</time>
      </trkpt>
      <trkpt lat="47.22724" lon="-1.63353">
        <ele>82</ele>
        <time>2019-08-13T11:23:28Z</time>
      </trkpt>
      <trkpt lat="47.2272" lon="-1.63377">
        <ele>82.2</ele>
        <time>2019-08-13T11:23:26Z</time>
      </trkpt>
      <trkpt lat="47.22712" lon="-1.63397">
        <ele>82</ele>
        <time>2019-08-13T11:23:24Z</time>
      </trkpt>
      <trkpt lat="47.22688" lon="-1.63433">
        <ele>81.2</ele>
        <time>2019-08-13T11:23:19Z</time>
      </trkpt>
      <trkpt lat="47.22683" lon="-1.63444">
        <ele>81.6</ele>
        <time>2019-08-13T11:23:17Z</time>
      </trkpt>
      <trkpt lat="47.22684" lon="-1.63457">
        <ele>82.8</ele>
        <time>2019-08-13T11:23:15Z</time>
      </trkpt>
      <trkpt lat="47.22686" lon="-1.63462">
        <ele>83.4</ele>
        <time>2019-08-13T11:23:14Z</time>
      </trkpt>
      <trkpt lat="47.22693" lon="-1.63467">
        <ele>83.8</ele>
        <time>2019-08-13T11:23:12Z</time>
      </trkpt>
      <trkpt lat="47.2271" lon="-1.63479">
        <ele>83.8</ele>
        <time>2019-08-13T11:23:09Z</time>
      </trkpt>
      <trkpt lat="47.22743" lon="-1.63496">
        <ele>84</ele>
        <time>2019-08-13T11:23:05Z</time>
      </trkpt>
      <trkpt lat="47.22755" lon="-1.63513">
        <ele>84</ele>
        <time>2019-08-13T11:23:03Z</time>
      </trkpt>
      <trkpt lat="47.22767" lon="-1.6356">
        <ele>84.4</ele>
        <time>2019-08-13T11:22:59Z</time>
      </trkpt>
      <trkpt lat="47.2277" lon="-1.63571">
        <ele>84.6</ele>
        <time>2019-08-13T11:22:58Z</time>
      </trkpt>
      <trkpt lat="47.22778" lon="-1.63584">
        <ele>85.2</ele>
        <time>2019-08-13T11:22:56Z</time>
      </trkpt>
      <trkpt lat="47.22788" lon="-1.6358">
        <ele>85.4</ele>
        <time>2019-08-13T11:22:54Z</time>
      </trkpt>
      <trkpt lat="47.22795" lon="-1.63566">
        <ele>85.4</ele>
        <time>2019-08-13T11:22:52Z</time>
      </trkpt>
      <trkpt lat="47.22805" lon="-1.6355">
        <ele>84.8</ele>
        <time>2019-08-13T11:22:50Z</time>
      </trkpt>
      <trkpt lat="47.22818" lon="-1.63539">
        <ele>85</ele>
        <time>2019-08-13T11:22:48Z</time>
      </trkpt>
      <trkpt lat="47.22834" lon="-1.63529">
        <ele>84.8</ele>
        <time>2019-08-13T11:22:46Z</time>
      </trkpt>
      <trkpt lat="47.22847" lon="-1.63518">
        <ele>84.6</ele>
        <time>2019-08-13T11:22:44Z</time>
      </trkpt>
      <trkpt lat="47.22852" lon="-1.63509">
        <ele>84.4</ele>
        <time>2019-08-13T11:22:43Z</time>
      </trkpt>
      <trkpt lat="47.22857" lon="-1.63499">
        <ele>84</ele>
        <time>2019-08-13T11:22:42Z</time>
      </trkpt>
      <trkpt lat="47.22874" lon="-1.63476">
        <ele>82.8</ele>
        <time>2019-08-13T11:22:39Z</time>
      </trkpt>
      <trkpt lat="47.22922" lon="-1.63421">
        <ele>82.8</ele>
        <time>2019-08-13T11:22:32Z</time>
      </trkpt>
      <trkpt lat="47.22929" lon="-1.63413">
        <ele>83.2</ele>
        <time>2019-08-13T11:22:31Z</time>
      </trkpt>
      <trkpt lat="47.22937" lon="-1.63406">
        <ele>83.4</ele>
        <time>2019-08-13T11:22:30Z</time>
      </trkpt>
      <trkpt lat="47.22955" lon="-1.63388">
        <ele>83.8</ele>
        <time>2019-08-13T11:22:27Z</time>
      </trkpt>
      <trkpt lat="47.22959" lon="-1.6338">
        <ele>84.4</ele>
        <time>2019-08-13T11:22:26Z</time>
      </trkpt>
      <trkpt lat="47.22968" lon="-1.63362">
        <ele>85.2</ele>
        <time>2019-08-13T11:22:24Z</time>
      </trkpt>
      <trkpt lat="47.22981" lon="-1.63347">
        <ele>85.6</ele>
        <time>2019-08-13T11:22:22Z</time>
      </trkpt>
      <trkpt lat="47.23016" lon="-1.63304">
        <ele>87.4</ele>
        <time>2019-08-13T11:22:17Z</time>
      </trkpt>
      <trkpt lat="47.23056" lon="-1.63245">
        <ele>86.6</ele>
        <time>2019-08-13T11:22:11Z</time>
      </trkpt>
      <trkpt lat="47.23092" lon="-1.63199">
        <ele>87</ele>
        <time>2019-08-13T11:22:06Z</time>
      </trkpt>
      <trkpt lat="47.23137" lon="-1.63148">
        <ele>87.6</ele>
        <time>2019-08-13T11:22:00Z</time>
      </trkpt>
      <trkpt lat="47.23158" lon="-1.63118">
        <ele>88.6</ele>
        <time>2019-08-13T11:21:57Z</time>
      </trkpt>
      <trkpt lat="47.23165" lon="-1.63113">
        <ele>88.8</ele>
        <time>2019-08-13T11:21:56Z</time>
      </trkpt>
      <trkpt lat="47.2319" lon="-1.63101">
        <ele>90</ele>
        <time>2019-08-13T11:21:53Z</time>
      </trkpt>
      <trkpt lat="47.23198" lon="-1.63097">
        <ele>90.4</ele>
        <time>2019-08-13T11:21:52Z</time>
      </trkpt>
      <trkpt lat="47.23255" lon="-1.6307">
        <ele>91.4</ele>
        <time>2019-08-13T11:21:45Z</time>
      </trkpt>
      <trkpt lat="47.23293" lon="-1.6305">
        <ele>92.4</ele>
        <time>2019-08-13T11:21:40Z</time>
      </trkpt>
      <trkpt lat="47.23301" lon="-1.63046">
        <ele>92.8</ele>
        <time>2019-08-13T11:21:39Z</time>
      </trkpt>
      <trkpt lat="47.23324" lon="-1.63038">
        <ele>93.8</ele>
        <time>2019-08-13T11:21:36Z</time>
      </trkpt>
      <trkpt lat="47.23355" lon="-1.63017">
        <ele>92.6</ele>
        <time>2019-08-13T11:21:31Z</time>
      </trkpt>
      <trkpt lat="47.23408" lon="-1.62983">
        <ele>92.8</ele>
        <time>2019-08-13T11:21:22Z</time>
      </trkpt>
      <trkpt lat="47.23435" lon="-1.62968">
        <ele>91.6</ele>
        <time>2019-08-13T11:21:17Z</time>
      </trkpt>
      <trkpt lat="47.23457" lon="-1.62958">
        <ele>90.6</ele>
        <time>2019-08-13T11:21:13Z</time>
      </trkpt>
      <trkpt lat="47.23468" lon="-1.62953">
        <ele>89.6</ele>
        <time>2019-08-13T11:21:11Z</time>
      </trkpt>
      <trkpt lat="47.2348" lon="-1.62951">
        <ele>89</ele>
        <time>2019-08-13T11:21:09Z</time>
      </trkpt>
      <trkpt lat="47.23497" lon="-1.62946">
        <ele>88</ele>
        <time>2019-08-13T11:21:06Z</time>
      </trkpt>
      <trkpt lat="47.23514" lon="-1.6294">
        <ele>86.6</ele>
        <time>2019-08-13T11:21:03Z</time>
      </trkpt>
      <trkpt lat="47.23531" lon="-1.62935">
        <ele>85.6</ele>
        <time>2019-08-13T11:21:00Z</time>
      </trkpt>
      <trkpt lat="47.23547" lon="-1.62933">
        <ele>84.4</ele>
        <time>2019-08-13T11:20:57Z</time>
      </trkpt>
      <trkpt lat="47.23558" lon="-1.6293">
        <ele>83.4</ele>
        <time>2019-08-13T11:20:55Z</time>
      </trkpt>
      <trkpt lat="47.23579" lon="-1.6292">
        <ele>82</ele>
        <time>2019-08-13T11:20:51Z</time>
      </trkpt>
      <trkpt lat="47.23594" lon="-1.62912">
        <ele>80.6</ele>
        <time>2019-08-13T11:20:48Z</time>
      </trkpt>
      <trkpt lat="47.23615" lon="-1.62902">
        <ele>79.4</ele>
        <time>2019-08-13T11:20:44Z</time>
      </trkpt>
      <trkpt lat="47.23631" lon="-1.62896">
        <ele>78.2</ele>
        <time>2019-08-13T11:20:41Z</time>
      </trkpt>
      <trkpt lat="47.23647" lon="-1.62891">
        <ele>76.8</ele>
        <time>2019-08-13T11:20:38Z</time>
      </trkpt>
      <trkpt lat="47.23664" lon="-1.62886">
        <ele>75.6</ele>
        <time>2019-08-13T11:20:35Z</time>
      </trkpt>
      <trkpt lat="47.23694" lon="-1.62877">
        <ele>74.4</ele>
        <time>2019-08-13T11:20:30Z</time>
      </trkpt>
      <trkpt lat="47.23723" lon="-1.6287">
        <ele>73.2</ele>
        <time>2019-08-13T11:20:25Z</time>
      </trkpt>
      <trkpt lat="47.2374" lon="-1.62865">
        <ele>72.2</ele>
        <time>2019-08-13T11:20:22Z</time>
      </trkpt>
      <trkpt lat="47.23746" lon="-1.62863">
        <ele>71.8</ele>
        <time>2019-08-13T11:20:21Z</time>
      </trkpt>
      <trkpt lat="47.23757" lon="-1.62863">
        <ele>71.2</ele>
        <time>2019-08-13T11:20:19Z</time>
      </trkpt>
      <trkpt lat="47.23767" lon="-1.6286">
        <ele>70.4</ele>
        <time>2019-08-13T11:20:17Z</time>
      </trkpt>
      <trkpt lat="47.23772" lon="-1.62858">
        <ele>70</ele>
        <time>2019-08-13T11:20:16Z</time>
      </trkpt>
      <trkpt lat="47.23777" lon="-1.62854">
        <ele>69.8</ele>
        <time>2019-08-13T11:20:15Z</time>
      </trkpt>
      <trkpt lat="47.23814" lon="-1.62836">
        <ele>69</ele>
        <time>2019-08-13T11:20:07Z</time>
      </trkpt>
      <trkpt lat="47.23839" lon="-1.62826">
        <ele>68</ele>
        <time>2019-08-13T11:20:02Z</time>
      </trkpt>
      <trkpt lat="47.23859" lon="-1.62817">
        <ele>67.2</ele>
        <time>2019-08-13T11:19:58Z</time>
      </trkpt>
      <trkpt lat="47.2387" lon="-1.62813">
        <ele>66.8</ele>
        <time>2019-08-13T11:19:56Z</time>
      </trkpt>
      <trkpt lat="47.23891" lon="-1.62807">
        <ele>65.6</ele>
        <time>2019-08-13T11:19:52Z</time>
      </trkpt>
      <trkpt lat="47.23901" lon="-1.62804">
        <ele>64.4</ele>
        <time>2019-08-13T11:19:50Z</time>
      </trkpt>
      <trkpt lat="47.23912" lon="-1.62801">
        <ele>63.2</ele>
        <time>2019-08-13T11:19:48Z</time>
      </trkpt>
      <trkpt lat="47.23918" lon="-1.62801">
        <ele>63</ele>
        <time>2019-08-13T11:19:47Z</time>
      </trkpt>
      <trkpt lat="47.23951" lon="-1.62787">
        <ele>62.2</ele>
        <time>2019-08-13T11:19:41Z</time>
      </trkpt>
      <trkpt lat="47.23962" lon="-1.62784">
        <ele>61</ele>
        <time>2019-08-13T11:19:39Z</time>
      </trkpt>
      <trkpt lat="47.23979" lon="-1.62778">
        <ele>59.8</ele>
        <time>2019-08-13T11:19:36Z</time>
      </trkpt>
      <trkpt lat="47.24015" lon="-1.62761">
        <ele>58.6</ele>
        <time>2019-08-13T11:19:29Z</time>
      </trkpt>
      <trkpt lat="47.24035" lon="-1.62762">
        <ele>57.6</ele>
        <time>2019-08-13T11:19:26Z</time>
      </trkpt>
      <trkpt lat="47.24048" lon="-1.62761">
        <ele>56.8</ele>
        <time>2019-08-13T11:19:24Z</time>
      </trkpt>
      <trkpt lat="47.24074" lon="-1.62763">
        <ele>56.4</ele>
        <time>2019-08-13T11:19:20Z</time>
      </trkpt>
      <trkpt lat="47.24103" lon="-1.62796">
        <ele>56.4</ele>
        <time>2019-08-13T11:19:17Z</time>
      </trkpt>
      <trkpt lat="47.24117" lon="-1.62795">
        <ele>56</ele>
        <time>2019-08-13T11:19:13Z</time>
      </trkpt>
      <trkpt lat="47.24129" lon="-1.62816">
        <ele>56.4</ele>
        <time>2019-08-13T11:19:10Z</time>
      </trkpt>
      <trkpt lat="47.24135" lon="-1.62828">
        <ele>57.4</ele>
        <time>2019-08-13T11:19:08Z</time>
      </trkpt>
      <trkpt lat="47.24146" lon="-1.62845">
        <ele>58.6</ele>
        <time>2019-08-13T11:19:05Z</time>
      </trkpt>
      <trkpt lat="47.24151" lon="-1.6286">
        <ele>58.8</ele>
        <time>2019-08-13T11:19:03Z</time>
      </trkpt>
      <trkpt lat="47.24154" lon="-1.62867">
        <ele>58.6</ele>
        <time>2019-08-13T11:19:02Z</time>
      </trkpt>
      <trkpt lat="47.24159" lon="-1.62879">
        <ele>57.6</ele>
        <time>2019-08-13T11:19:00Z</time>
      </trkpt>
      <trkpt lat="47.24164" lon="-1.6289">
        <ele>56.4</ele>
        <time>2019-08-13T11:18:58Z</time>
      </trkpt>
      <trkpt lat="47.24166" lon="-1.62896">
        <ele>55.8</ele>
        <time>2019-08-13T11:18:57Z</time>
      </trkpt>
      <trkpt lat="47.24168" lon="-1.62903">
        <ele>55.4</ele>
        <time>2019-08-13T11:18:56Z</time>
      </trkpt>
      <trkpt lat="47.24175" lon="-1.62927">
        <ele>56.4</ele>
        <time>2019-08-13T11:18:53Z</time>
      </trkpt>
      <trkpt lat="47.24188" lon="-1.62968">
        <ele>57.8</ele>
        <time>2019-08-13T11:18:48Z</time>
      </trkpt>
      <trkpt lat="47.2421" lon="-1.6303">
        <ele>58</ele>
        <time>2019-08-13T11:18:43Z</time>
      </trkpt>
      <trkpt lat="47.24213" lon="-1.63044">
        <ele>57.6</ele>
        <time>2019-08-13T11:18:41Z</time>
      </trkpt>
      <trkpt lat="47.24214" lon="-1.63051">
        <ele>57.4</ele>
        <time>2019-08-13T11:18:40Z</time>
      </trkpt>
      <trkpt lat="47.24217" lon="-1.63071">
        <ele>56.6</ele>
        <time>2019-08-13T11:18:37Z</time>
      </trkpt>
      <trkpt lat="47.24227" lon="-1.6311">
        <ele>56.6</ele>
        <time>2019-08-13T11:18:34Z</time>
      </trkpt>
      <trkpt lat="47.24232" lon="-1.63133">
        <ele>56.2</ele>
        <time>2019-08-13T11:18:32Z</time>
      </trkpt>
      <trkpt lat="47.24238" lon="-1.63153">
        <ele>56.4</ele>
        <time>2019-08-13T11:18:30Z</time>
      </trkpt>
      <trkpt lat="47.24244" lon="-1.63169">
        <ele>56.8</ele>
        <time>2019-08-13T11:18:28Z</time>
      </trkpt>
      <trkpt lat="47.2427" lon="-1.63203">
        <ele>57.2</ele>
        <time>2019-08-13T11:18:23Z</time>
      </trkpt>
      <trkpt lat="47.24306" lon="-1.63232">
        <ele>57.6</ele>
        <time>2019-08-13T11:18:20Z</time>
      </trkpt>
      <trkpt lat="47.24326" lon="-1.63245">
        <ele>59.2</ele>
        <time>2019-08-13T11:18:16Z</time>
      </trkpt>
      <trkpt lat="47.24334" lon="-1.63252">
        <ele>59.8</ele>
        <time>2019-08-13T11:18:14Z</time>
      </trkpt>
      <trkpt lat="47.24351" lon="-1.6327">
        <ele>60.2</ele>
        <time>2019-08-13T11:18:11Z</time>
      </trkpt>
      <trkpt lat="47.24356" lon="-1.63275">
        <ele>60.4</ele>
        <time>2019-08-13T11:18:10Z</time>
      </trkpt>
      <trkpt lat="47.2436" lon="-1.6328">
        <ele>60.8</ele>
        <time>2019-08-13T11:18:09Z</time>
      </trkpt>
      <trkpt lat="47.24367" lon="-1.63288">
        <ele>61.8</ele>
        <time>2019-08-13T11:18:07Z</time>
      </trkpt>
      <trkpt lat="47.2437" lon="-1.6329">
        <ele>62.4</ele>
        <time>2019-08-13T11:18:06Z</time>
      </trkpt>
      <trkpt lat="47.24375" lon="-1.63291">
        <ele>62.8</ele>
        <time>2019-08-13T11:18:05Z</time>
      </trkpt>
      <trkpt lat="47.24383" lon="-1.63291">
        <ele>64.2</ele>
        <time>2019-08-13T11:18:03Z</time>
      </trkpt>
      <trkpt lat="47.24391" lon="-1.63292">
        <ele>65.4</ele>
        <time>2019-08-13T11:18:01Z</time>
      </trkpt>
      <trkpt lat="47.24401" lon="-1.63289">
        <ele>66.8</ele>
        <time>2019-08-13T11:17:59Z</time>
      </trkpt>
      <trkpt lat="47.24413" lon="-1.63287">
        <ele>68.2</ele>
        <time>2019-08-13T11:17:57Z</time>
      </trkpt>
      <trkpt lat="47.24417" lon="-1.63286">
        <ele>69.4</ele>
        <time>2019-08-13T11:17:56Z</time>
      </trkpt>
      <trkpt lat="47.24422" lon="-1.63285">
        <ele>71</ele>
        <time>2019-08-13T11:17:55Z</time>
      </trkpt>
      <trkpt lat="47.24429" lon="-1.63283">
        <ele>73.2</ele>
        <time>2019-08-13T11:17:53Z</time>
      </trkpt>
      <trkpt lat="47.24433" lon="-1.63281">
        <ele>74.4</ele>
        <time>2019-08-13T11:17:52Z</time>
      </trkpt>
      <trkpt lat="47.24441" lon="-1.63278">
        <ele>76.2</ele>
        <time>2019-08-13T11:17:50Z</time>
      </trkpt>
      <trkpt lat="47.24448" lon="-1.63275">
        <ele>78</ele>
        <time>2019-08-13T11:17:48Z</time>
      </trkpt>
      <trkpt lat="47.24455" lon="-1.63272">
        <ele>79.8</ele>
        <time>2019-08-13T11:17:46Z</time>
      </trkpt>
      <trkpt lat="47.24465" lon="-1.63269">
        <ele>81</ele>
        <time>2019-08-13T11:17:44Z</time>
      </trkpt>
      <trkpt lat="47.24476" lon="-1.63264">
        <ele>82.8</ele>
        <time>2019-08-13T11:17:42Z</time>
      </trkpt>
      <trkpt lat="47.24482" lon="-1.6326">
        <ele>84</ele>
        <time>2019-08-13T11:17:41Z</time>
      </trkpt>
      <trkpt lat="47.24489" lon="-1.63255">
        <ele>85</ele>
        <time>2019-08-13T11:17:40Z</time>
      </trkpt>
      <trkpt lat="47.24495" lon="-1.63252">
        <ele>86.2</ele>
        <time>2019-08-13T11:17:39Z</time>
      </trkpt>
      <trkpt lat="47.24522" lon="-1.63234">
        <ele>87.6</ele>
        <time>2019-08-13T11:17:35Z</time>
      </trkpt>
      <trkpt lat="47.24532" lon="-1.63229">
        <ele>87.8</ele>
        <time>2019-08-13T11:17:33Z</time>
      </trkpt>
      <trkpt lat="47.24548" lon="-1.63236">
        <ele>88.4</ele>
        <time>2019-08-13T11:17:31Z</time>
      </trkpt>
      <trkpt lat="47.24556" lon="-1.63239">
        <ele>88.6</ele>
        <time>2019-08-13T11:17:30Z</time>
      </trkpt>
      <trkpt lat="47.24559" lon="-1.63243">
        <ele>89</ele>
        <time>2019-08-13T11:17:29Z</time>
      </trkpt>
      <trkpt lat="47.24569" lon="-1.63244">
        <ele>90</ele>
        <time>2019-08-13T11:17:27Z</time>
      </trkpt>
      <trkpt lat="47.24592" lon="-1.63229">
        <ele>91.2</ele>
        <time>2019-08-13T11:17:23Z</time>
      </trkpt>
      <trkpt lat="47.24609" lon="-1.63219">
        <ele>92.6</ele>
        <time>2019-08-13T11:17:20Z</time>
      </trkpt>
      <trkpt lat="47.2462" lon="-1.63209">
        <ele>93.4</ele>
        <time>2019-08-13T11:17:18Z</time>
      </trkpt>
      <trkpt lat="47.24674" lon="-1.63174">
        <ele>93.8</ele>
        <time>2019-08-13T11:17:09Z</time>
      </trkpt>
      <trkpt lat="47.24685" lon="-1.63166">
        <ele>93.2</ele>
        <time>2019-08-13T11:17:07Z</time>
      </trkpt>
      <trkpt lat="47.24716" lon="-1.63145">
        <ele>92.8</ele>
        <time>2019-08-13T11:17:02Z</time>
      </trkpt>
      <trkpt lat="47.2473" lon="-1.63139">
        <ele>92.6</ele>
        <time>2019-08-13T11:17:00Z</time>
      </trkpt>
      <trkpt lat="47.24741" lon="-1.63132">
        <ele>92.6</ele>
        <time>2019-08-13T11:16:58Z</time>
      </trkpt>
      <trkpt lat="47.24763" lon="-1.63122">
        <ele>92.8</ele>
        <time>2019-08-13T11:16:54Z</time>
      </trkpt>
      <trkpt lat="47.24778" lon="-1.6312">
        <ele>92.6</ele>
        <time>2019-08-13T11:16:51Z</time>
      </trkpt>
      <trkpt lat="47.24782" lon="-1.63128">
        <ele>92</ele>
        <time>2019-08-13T11:16:49Z</time>
      </trkpt>
      <trkpt lat="47.24783" lon="-1.63131">
        <ele>91.6</ele>
        <time>2019-08-13T11:16:48Z</time>
      </trkpt>
      <trkpt lat="47.24786" lon="-1.63134">
        <ele>91.2</ele>
        <time>2019-08-13T11:16:47Z</time>
      </trkpt>
      <trkpt lat="47.24796" lon="-1.63134">
        <ele>90.6</ele>
        <time>2019-08-13T11:16:45Z</time>
      </trkpt>
      <trkpt lat="47.24801" lon="-1.63132">
        <ele>90</ele>
        <time>2019-08-13T11:16:44Z</time>
      </trkpt>
      <trkpt lat="47.24851" lon="-1.63098">
        <ele>89</ele>
        <time>2019-08-13T11:16:36Z</time>
      </trkpt>
      <trkpt lat="47.24866" lon="-1.63088">
        <ele>89.6</ele>
        <time>2019-08-13T11:16:34Z</time>
      </trkpt>
      <trkpt lat="47.24908" lon="-1.63061">
        <ele>90</ele>
        <time>2019-08-13T11:16:28Z</time>
      </trkpt>
      <trkpt lat="47.24921" lon="-1.63052">
        <ele>90.2</ele>
        <time>2019-08-13T11:16:26Z</time>
      </trkpt>
      <trkpt lat="47.24934" lon="-1.63041">
        <ele>91.6</ele>
        <time>2019-08-13T11:16:24Z</time>
      </trkpt>
      <trkpt lat="47.24942" lon="-1.63036">
        <ele>92</ele>
        <time>2019-08-13T11:16:23Z</time>
      </trkpt>
      <trkpt lat="47.2495" lon="-1.6303">
        <ele>93</ele>
        <time>2019-08-13T11:16:22Z</time>
      </trkpt>
      <trkpt lat="47.24956" lon="-1.63026">
        <ele>93</ele>
        <time>2019-08-13T11:16:21Z</time>
      </trkpt>
      <trkpt lat="47.2497" lon="-1.63018">
        <ele>91.4</ele>
        <time>2019-08-13T11:16:19Z</time>
      </trkpt>
      <trkpt lat="47.24977" lon="-1.63015">
        <ele>89.8</ele>
        <time>2019-08-13T11:16:18Z</time>
      </trkpt>
      <trkpt lat="47.24995" lon="-1.63002">
        <ele>88.4</ele>
        <time>2019-08-13T11:16:15Z</time>
      </trkpt>
      <trkpt lat="47.25013" lon="-1.6299">
        <ele>87.2</ele>
        <time>2019-08-13T11:16:12Z</time>
      </trkpt>
      <trkpt lat="47.25032" lon="-1.62973">
        <ele>87.2</ele>
        <time>2019-08-13T11:16:09Z</time>
      </trkpt>
      <trkpt lat="47.25044" lon="-1.62959">
        <ele>88.4</ele>
        <time>2019-08-13T11:16:07Z</time>
      </trkpt>
      <trkpt lat="47.25071" lon="-1.62934">
        <ele>90</ele>
        <time>2019-08-13T11:16:03Z</time>
      </trkpt>
      <trkpt lat="47.25079" lon="-1.62928">
        <ele>90.8</ele>
        <time>2019-08-13T11:16:02Z</time>
      </trkpt>
      <trkpt lat="47.25107" lon="-1.62907">
        <ele>91.4</ele>
        <time>2019-08-13T11:15:58Z</time>
      </trkpt>
      <trkpt lat="47.25119" lon="-1.62897">
        <ele>91.8</ele>
        <time>2019-08-13T11:15:56Z</time>
      </trkpt>
      <trkpt lat="47.25137" lon="-1.6288">
        <ele>91.8</ele>
        <time>2019-08-13T11:15:53Z</time>
      </trkpt>
      <trkpt lat="47.25162" lon="-1.6286">
        <ele>91.6</ele>
        <time>2019-08-13T11:15:49Z</time>
      </trkpt>
      <trkpt lat="47.25182" lon="-1.62846">
        <ele>91.6</ele>
        <time>2019-08-13T11:15:45Z</time>
      </trkpt>
      <trkpt lat="47.25185" lon="-1.62843">
        <ele>91.6</ele>
        <time>2019-08-13T11:15:44Z</time>
      </trkpt>
      <trkpt lat="47.25188" lon="-1.62841">
        <ele>92</ele>
        <time>2019-08-13T11:15:43Z</time>
      </trkpt>
      <trkpt lat="47.252" lon="-1.62834">
        <ele>93.4</ele>
        <time>2019-08-13T11:15:40Z</time>
      </trkpt>
      <trkpt lat="47.25252" lon="-1.628">
        <ele>92.8</ele>
        <time>2019-08-13T11:15:31Z</time>
      </trkpt>
      <trkpt lat="47.25287" lon="-1.62774">
        <ele>93.8</ele>
        <time>2019-08-13T11:15:26Z</time>
      </trkpt>
      <trkpt lat="47.2534" lon="-1.62732">
        <ele>94</ele>
        <time>2019-08-13T11:15:16Z</time>
      </trkpt>
      <trkpt lat="47.25342" lon="-1.62728">
        <ele>94.2</ele>
        <time>2019-08-13T11:15:15Z</time>
      </trkpt>
      <trkpt lat="47.25346" lon="-1.62715">
        <ele>94.8</ele>
        <time>2019-08-13T11:15:13Z</time>
      </trkpt>
      <trkpt lat="47.25359" lon="-1.62709">
        <ele>95</ele>
        <time>2019-08-13T11:15:11Z</time>
      </trkpt>
      <trkpt lat="47.25366" lon="-1.6271">
        <ele>95.2</ele>
        <time>2019-08-13T11:15:10Z</time>
      </trkpt>
      <trkpt lat="47.25373" lon="-1.62714">
        <ele>95.6</ele>
        <time>2019-08-13T11:15:09Z</time>
      </trkpt>
      <trkpt lat="47.25386" lon="-1.62743">
        <ele>96.2</ele>
        <time>2019-08-13T11:15:06Z</time>
      </trkpt>
      <trkpt lat="47.2539" lon="-1.62754">
        <ele>96.2</ele>
        <time>2019-08-13T11:15:05Z</time>
      </trkpt>
      <trkpt lat="47.25418" lon="-1.62823">
        <ele>97.4</ele>
        <time>2019-08-13T11:14:59Z</time>
      </trkpt>
      <trkpt lat="47.25424" lon="-1.62847">
        <ele>97.2</ele>
        <time>2019-08-13T11:14:57Z</time>
      </trkpt>
      <trkpt lat="47.25426" lon="-1.62873">
        <ele>96.6</ele>
        <time>2019-08-13T11:14:55Z</time>
      </trkpt>
      <trkpt lat="47.25423" lon="-1.62899">
        <ele>96.2</ele>
        <time>2019-08-13T11:14:53Z</time>
      </trkpt>
      <trkpt lat="47.25425" lon="-1.62929">
        <ele>96</ele>
        <time>2019-08-13T11:14:51Z</time>
      </trkpt>
      <trkpt lat="47.25434" lon="-1.62951">
        <ele>96</ele>
        <time>2019-08-13T11:14:49Z</time>
      </trkpt>
      <trkpt lat="47.25448" lon="-1.62956">
        <ele>96.2</ele>
        <time>2019-08-13T11:14:47Z</time>
      </trkpt>
      <trkpt lat="47.25462" lon="-1.62948">
        <ele>96.4</ele>
        <time>2019-08-13T11:14:45Z</time>
      </trkpt>
      <trkpt lat="47.2547" lon="-1.62935">
        <ele>97</ele>
        <time>2019-08-13T11:14:43Z</time>
      </trkpt>
      <trkpt lat="47.25473" lon="-1.62929">
        <ele>97.4</ele>
        <time>2019-08-13T11:14:42Z</time>
      </trkpt>
      <trkpt lat="47.25474" lon="-1.62923">
        <ele>98.2</ele>
        <time>2019-08-13T11:14:41Z</time>
      </trkpt>
      <trkpt lat="47.25476" lon="-1.62919">
        <ele>98.6</ele>
        <time>2019-08-13T11:14:40Z</time>
      </trkpt>
      <trkpt lat="47.25483" lon="-1.6291">
        <ele>99.2</ele>
        <time>2019-08-13T11:14:38Z</time>
      </trkpt>
      <trkpt lat="47.25534" lon="-1.62869">
        <ele>99.2</ele>
        <time>2019-08-13T11:14:30Z</time>
      </trkpt>
      <trkpt lat="47.25583" lon="-1.62834">
        <ele>99.6</ele>
        <time>2019-08-13T11:14:23Z</time>
      </trkpt>
      <trkpt lat="47.25596" lon="-1.62822">
        <ele>98.6</ele>
        <time>2019-08-13T11:14:21Z</time>
      </trkpt>
      <trkpt lat="47.25616" lon="-1.62804">
        <ele>97.2</ele>
        <time>2019-08-13T11:14:18Z</time>
      </trkpt>
      <trkpt lat="47.25648" lon="-1.6277">
        <ele>98.2</ele>
        <time>2019-08-13T11:14:13Z</time>
      </trkpt>
      <trkpt lat="47.25674" lon="-1.62726">
        <ele>99.4</ele>
        <time>2019-08-13T11:14:08Z</time>
      </trkpt>
      <trkpt lat="47.2571" lon="-1.62661">
        <ele>99.4</ele>
        <time>2019-08-13T11:14:01Z</time>
      </trkpt>
      <trkpt lat="47.2572" lon="-1.62643">
        <ele>98.8</ele>
        <time>2019-08-13T11:13:59Z</time>
      </trkpt>
      <trkpt lat="47.25731" lon="-1.62625">
        <ele>98.2</ele>
        <time>2019-08-13T11:13:57Z</time>
      </trkpt>
      <trkpt lat="47.25741" lon="-1.62608">
        <ele>96.8</ele>
        <time>2019-08-13T11:13:55Z</time>
      </trkpt>
      <trkpt lat="47.2576" lon="-1.62573">
        <ele>95.4</ele>
        <time>2019-08-13T11:13:51Z</time>
      </trkpt>
      <trkpt lat="47.25798" lon="-1.62505">
        <ele>95.4</ele>
        <time>2019-08-13T11:13:43Z</time>
      </trkpt>
      <trkpt lat="47.25802" lon="-1.62498">
        <ele>96.2</ele>
        <time>2019-08-13T11:13:42Z</time>
      </trkpt>
      <trkpt lat="47.25814" lon="-1.6249">
        <ele>96.6</ele>
        <time>2019-08-13T11:13:40Z</time>
      </trkpt>
      <trkpt lat="47.25819" lon="-1.62488">
        <ele>97.2</ele>
        <time>2019-08-13T11:13:39Z</time>
      </trkpt>
      <trkpt lat="47.25825" lon="-1.62489">
        <ele>97.8</ele>
        <time>2019-08-13T11:13:38Z</time>
      </trkpt>
      <trkpt lat="47.25829" lon="-1.62495">
        <ele>98.4</ele>
        <time>2019-08-13T11:13:37Z</time>
      </trkpt>
      <trkpt lat="47.25833" lon="-1.62503">
        <ele>98.6</ele>
        <time>2019-08-13T11:13:36Z</time>
      </trkpt>
      <trkpt lat="47.25849" lon="-1.62558">
        <ele>100.2</ele>
        <time>2019-08-13T11:13:31Z</time>
      </trkpt>
      <trkpt lat="47.25856" lon="-1.62574">
        <ele>100</ele>
        <time>2019-08-13T11:13:29Z</time>
      </trkpt>
      <trkpt lat="47.25861" lon="-1.62577">
        <ele>99.6</ele>
        <time>2019-08-13T11:13:28Z</time>
      </trkpt>
      <trkpt lat="47.25872" lon="-1.62581">
        <ele>98</ele>
        <time>2019-08-13T11:13:26Z</time>
      </trkpt>
      <trkpt lat="47.25878" lon="-1.62583">
        <ele>96.8</ele>
        <time>2019-08-13T11:13:25Z</time>
      </trkpt>
      <trkpt lat="47.25891" lon="-1.62588">
        <ele>95</ele>
        <time>2019-08-13T11:13:23Z</time>
      </trkpt>
      <trkpt lat="47.25902" lon="-1.62592">
        <ele>94</ele>
        <time>2019-08-13T11:13:21Z</time>
      </trkpt>
      <trkpt lat="47.25914" lon="-1.6259">
        <ele>93.6</ele>
        <time>2019-08-13T11:13:19Z</time>
      </trkpt>
      <trkpt lat="47.25933" lon="-1.62575">
        <ele>93.6</ele>
        <time>2019-08-13T11:13:16Z</time>
      </trkpt>
      <trkpt lat="47.25966" lon="-1.62545">
        <ele>93.8</ele>
        <time>2019-08-13T11:13:11Z</time>
      </trkpt>
      <trkpt lat="47.26015" lon="-1.62505">
        <ele>94.8</ele>
        <time>2019-08-13T11:13:04Z</time>
      </trkpt>
      <trkpt lat="47.26036" lon="-1.62487">
        <ele>96.4</ele>
        <time>2019-08-13T11:13:01Z</time>
      </trkpt>
      <trkpt lat="47.26043" lon="-1.62482">
        <ele>96.6</ele>
        <time>2019-08-13T11:13:00Z</time>
      </trkpt>
      <trkpt lat="47.26056" lon="-1.62468">
        <ele>97.2</ele>
        <time>2019-08-13T11:12:58Z</time>
      </trkpt>
      <trkpt lat="47.26104" lon="-1.62426">
        <ele>98</ele>
        <time>2019-08-13T11:12:49Z</time>
      </trkpt>
      <trkpt lat="47.26112" lon="-1.62432">
        <ele>98</ele>
        <time>2019-08-13T11:12:47Z</time>
      </trkpt>
      <trkpt lat="47.26116" lon="-1.62446">
        <ele>98</ele>
        <time>2019-08-13T11:12:45Z</time>
      </trkpt>
      <trkpt lat="47.26122" lon="-1.6246">
        <ele>98.2</ele>
        <time>2019-08-13T11:12:43Z</time>
      </trkpt>
      <trkpt lat="47.26144" lon="-1.62477">
        <ele>97.4</ele>
        <time>2019-08-13T11:12:38Z</time>
      </trkpt>
      <trkpt lat="47.26149" lon="-1.62482">
        <ele>96.4</ele>
        <time>2019-08-13T11:12:36Z</time>
      </trkpt>
      <trkpt lat="47.26153" lon="-1.62509">
        <ele>96.2</ele>
        <time>2019-08-13T11:12:34Z</time>
      </trkpt>
      <trkpt lat="47.26149" lon="-1.62527">
        <ele>96.2</ele>
        <time>2019-08-13T11:12:32Z</time>
      </trkpt>
      <trkpt lat="47.26142" lon="-1.62543">
        <ele>96.2</ele>
        <time>2019-08-13T11:12:30Z</time>
      </trkpt>
      <trkpt lat="47.2614" lon="-1.62556">
        <ele>96.6</ele>
        <time>2019-08-13T11:12:28Z</time>
      </trkpt>
      <trkpt lat="47.26146" lon="-1.62564">
        <ele>97.2</ele>
        <time>2019-08-13T11:12:26Z</time>
      </trkpt>
      <trkpt lat="47.26151" lon="-1.62565">
        <ele>97.4</ele>
        <time>2019-08-13T11:12:25Z</time>
      </trkpt>
      <trkpt lat="47.26179" lon="-1.62581">
        <ele>96.4</ele>
        <time>2019-08-13T11:12:21Z</time>
      </trkpt>
      <trkpt lat="47.26191" lon="-1.62585">
        <ele>97.4</ele>
        <time>2019-08-13T11:12:19Z</time>
      </trkpt>
      <trkpt lat="47.26214" lon="-1.62601">
        <ele>95.4</ele>
        <time>2019-08-13T11:12:13Z</time>
      </trkpt>
      <trkpt lat="47.26215" lon="-1.62603">
        <ele>95.4</ele>
        <time>2019-08-13T11:09:24Z</time>
      </trkpt>
      <trkpt lat="47.26201" lon="-1.62595">
        <ele>96.2</ele>
        <time>2019-08-13T11:09:20Z</time>
      </trkpt>
      <trkpt lat="47.26185" lon="-1.62589">
        <ele>95.4</ele>
        <time>2019-08-13T11:09:17Z</time>
      </trkpt>
      <trkpt lat="47.26157" lon="-1.62579">
        <ele>93.6</ele>
        <time>2019-08-13T11:09:12Z</time>
      </trkpt>
      <trkpt lat="47.26147" lon="-1.62573">
        <ele>94</ele>
        <time>2019-08-13T11:09:10Z</time>
      </trkpt>
      <trkpt lat="47.26145" lon="-1.62557">
        <ele>94.4</ele>
        <time>2019-08-13T11:09:08Z</time>
      </trkpt>
      <trkpt lat="47.26147" lon="-1.62548">
        <ele>94.6</ele>
        <time>2019-08-13T11:09:07Z</time>
      </trkpt>
      <trkpt lat="47.26159" lon="-1.62506">
        <ele>95.8</ele>
        <time>2019-08-13T11:09:02Z</time>
      </trkpt>
      <trkpt lat="47.26161" lon="-1.62497">
        <ele>96</ele>
        <time>2019-08-13T11:09:01Z</time>
      </trkpt>
      <trkpt lat="47.26164" lon="-1.62481">
        <ele>96.4</ele>
        <time>2019-08-13T11:08:59Z</time>
      </trkpt>
      <trkpt lat="47.26169" lon="-1.62466">
        <ele>96.4</ele>
        <time>2019-08-13T11:08:57Z</time>
      </trkpt>
      <trkpt lat="47.26179" lon="-1.62457">
        <ele>96.6</ele>
        <time>2019-08-13T11:08:55Z</time>
      </trkpt>
      <trkpt lat="47.26228" lon="-1.62413">
        <ele>97</ele>
        <time>2019-08-13T11:08:46Z</time>
      </trkpt>
      <trkpt lat="47.26239" lon="-1.624">
        <ele>96.8</ele>
        <time>2019-08-13T11:08:44Z</time>
      </trkpt>
      <trkpt lat="47.26249" lon="-1.62387">
        <ele>96.8</ele>
        <time>2019-08-13T11:08:43Z</time>
      </trkpt>
      <trkpt lat="47.26263" lon="-1.6236">
        <ele>96</ele>
        <time>2019-08-13T11:08:39Z</time>
      </trkpt>
      <trkpt lat="47.26264" lon="-1.62357">
        <ele>95.8</ele>
        <time>2019-08-13T11:08:38Z</time>
      </trkpt>
      <trkpt lat="47.26266" lon="-1.62354">
        <ele>95.6</ele>
        <time>2019-08-13T11:08:37Z</time>
      </trkpt>
      <trkpt lat="47.2628" lon="-1.62335">
        <ele>94.8</ele>
        <time>2019-08-13T11:08:34Z</time>
      </trkpt>
      <trkpt lat="47.26285" lon="-1.6233">
        <ele>94.6</ele>
        <time>2019-08-13T11:08:33Z</time>
      </trkpt>
      <trkpt lat="47.263" lon="-1.62311">
        <ele>93.6</ele>
        <time>2019-08-13T11:08:29Z</time>
      </trkpt>
      <trkpt lat="47.26312" lon="-1.62299">
        <ele>92.4</ele>
        <time>2019-08-13T11:08:26Z</time>
      </trkpt>
      <trkpt lat="47.26324" lon="-1.62289">
        <ele>91.2</ele>
        <time>2019-08-13T11:08:23Z</time>
      </trkpt>
      <trkpt lat="47.26332" lon="-1.62281">
        <ele>90.4</ele>
        <time>2019-08-13T11:08:21Z</time>
      </trkpt>
      <trkpt lat="47.26343" lon="-1.62279">
        <ele>89.8</ele>
        <time>2019-08-13T11:08:19Z</time>
      </trkpt>
      <trkpt lat="47.26374" lon="-1.62266">
        <ele>89.4</ele>
        <time>2019-08-13T11:08:12Z</time>
      </trkpt>
      <trkpt lat="47.26389" lon="-1.62256">
        <ele>88.8</ele>
        <time>2019-08-13T11:08:07Z</time>
      </trkpt>
      <trkpt lat="47.26398" lon="-1.62246">
        <ele>87.6</ele>
        <time>2019-08-13T11:08:04Z</time>
      </trkpt>
      <trkpt lat="47.26412" lon="-1.62213">
        <ele>86.4</ele>
        <time>2019-08-13T11:07:57Z</time>
      </trkpt>
      <trkpt lat="47.26417" lon="-1.62201">
        <ele>87.6</ele>
        <time>2019-08-13T11:07:54Z</time>
      </trkpt>
      <trkpt lat="47.2642" lon="-1.62199">
        <ele>88.8</ele>
        <time>2019-08-13T11:07:52Z</time>
      </trkpt>
      <trkpt lat="47.26426" lon="-1.62219">
        <ele>88.8</ele>
        <time>2019-08-13T11:07:48Z</time>
      </trkpt>
      <trkpt lat="47.26448" lon="-1.62269">
        <ele>87.6</ele>
        <time>2019-08-13T11:07:43Z</time>
      </trkpt>
      <trkpt lat="47.2645" lon="-1.62297">
        <ele>88</ele>
        <time>2019-08-13T11:07:40Z</time>
      </trkpt>
      <trkpt lat="47.26453" lon="-1.62313">
        <ele>88.6</ele>
        <time>2019-08-13T11:07:38Z</time>
      </trkpt>
      <trkpt lat="47.26456" lon="-1.62338">
        <ele>87.6</ele>
        <time>2019-08-13T11:07:35Z</time>
      </trkpt>
      <trkpt lat="47.26471" lon="-1.62417">
        <ele>87.6</ele>
        <time>2019-08-13T11:07:26Z</time>
      </trkpt>
      <trkpt lat="47.26474" lon="-1.62424">
        <ele>87</ele>
        <time>2019-08-13T11:07:25Z</time>
      </trkpt>
      <trkpt lat="47.26477" lon="-1.6243">
        <ele>86.4</ele>
        <time>2019-08-13T11:07:24Z</time>
      </trkpt>
      <trkpt lat="47.26478" lon="-1.62436">
        <ele>85.6</ele>
        <time>2019-08-13T11:07:23Z</time>
      </trkpt>
      <trkpt lat="47.26483" lon="-1.62451">
        <ele>84.8</ele>
        <time>2019-08-13T11:07:21Z</time>
      </trkpt>
      <trkpt lat="47.26493" lon="-1.62498">
        <ele>83.6</ele>
        <time>2019-08-13T11:07:15Z</time>
      </trkpt>
      <trkpt lat="47.26509" lon="-1.62568">
        <ele>83</ele>
        <time>2019-08-13T11:07:07Z</time>
      </trkpt>
      <trkpt lat="47.2652" lon="-1.62621">
        <ele>82.6</ele>
        <time>2019-08-13T11:07:01Z</time>
      </trkpt>
      <trkpt lat="47.26521" lon="-1.62662">
        <ele>82.4</ele>
        <time>2019-08-13T11:06:57Z</time>
      </trkpt>
      <trkpt lat="47.26528" lon="-1.62722">
        <ele>82.4</ele>
        <time>2019-08-13T11:06:52Z</time>
      </trkpt>
      <trkpt lat="47.26529" lon="-1.62741">
        <ele>82.6</ele>
        <time>2019-08-13T11:06:50Z</time>
      </trkpt>
      <trkpt lat="47.26528" lon="-1.6275">
        <ele>82.4</ele>
        <time>2019-08-13T11:06:49Z</time>
      </trkpt>
      <trkpt lat="47.26527" lon="-1.62759">
        <ele>82.2</ele>
        <time>2019-08-13T11:06:48Z</time>
      </trkpt>
      <trkpt lat="47.26529" lon="-1.62785">
        <ele>81.4</ele>
        <time>2019-08-13T11:06:45Z</time>
      </trkpt>
      <trkpt lat="47.26536" lon="-1.62809">
        <ele>80.2</ele>
        <time>2019-08-13T11:06:41Z</time>
      </trkpt>
      <trkpt lat="47.26547" lon="-1.62829">
        <ele>79</ele>
        <time>2019-08-13T11:06:36Z</time>
      </trkpt>
      <trkpt lat="47.26561" lon="-1.62853">
        <ele>77.8</ele>
        <time>2019-08-13T11:06:32Z</time>
      </trkpt>
      <trkpt lat="47.2659" lon="-1.62888">
        <ele>76.6</ele>
        <time>2019-08-13T11:06:23Z</time>
      </trkpt>
      <trkpt lat="47.26623" lon="-1.6293">
        <ele>75.4</ele>
        <time>2019-08-13T11:06:14Z</time>
      </trkpt>
      <trkpt lat="47.26639" lon="-1.62955">
        <ele>74.4</ele>
        <time>2019-08-13T11:06:08Z</time>
      </trkpt>
      <trkpt lat="47.26643" lon="-1.62965">
        <ele>72.8</ele>
        <time>2019-08-13T11:06:05Z</time>
      </trkpt>
      <trkpt lat="47.26664" lon="-1.62995">
        <ele>71.6</ele>
        <time>2019-08-13T11:05:57Z</time>
      </trkpt>
      <trkpt lat="47.2667" lon="-1.63007">
        <ele>71.4</ele>
        <time>2019-08-13T11:05:53Z</time>
      </trkpt>
      <trkpt lat="47.26674" lon="-1.63029">
        <ele>70.6</ele>
        <time>2019-08-13T11:05:45Z</time>
      </trkpt>
      <trkpt lat="47.26676" lon="-1.63029">
        <ele>70</ele>
        <time>2019-08-13T11:05:44Z</time>
      </trkpt>
      <trkpt lat="47.26679" lon="-1.63031">
        <ele>69.2</ele>
        <time>2019-08-13T11:05:43Z</time>
      </trkpt>
      <trkpt lat="47.26689" lon="-1.63041">
        <ele>67.8</ele>
        <time>2019-08-13T11:05:40Z</time>
      </trkpt>
      <trkpt lat="47.26697" lon="-1.63064">
        <ele>66.4</ele>
        <time>2019-08-13T11:05:34Z</time>
      </trkpt>
      <trkpt lat="47.26712" lon="-1.63089">
        <ele>66.4</ele>
        <time>2019-08-13T11:05:27Z</time>
      </trkpt>
      <trkpt lat="47.2673" lon="-1.6312">
        <ele>65.4</ele>
        <time>2019-08-13T11:05:22Z</time>
      </trkpt>
      <trkpt lat="47.26736" lon="-1.63128">
        <ele>64.2</ele>
        <time>2019-08-13T11:05:20Z</time>
      </trkpt>
      <trkpt lat="47.2674" lon="-1.63134">
        <ele>63</ele>
        <time>2019-08-13T11:05:18Z</time>
      </trkpt>
      <trkpt lat="47.26756" lon="-1.63144">
        <ele>62</ele>
        <time>2019-08-13T11:05:14Z</time>
      </trkpt>
      <trkpt lat="47.26763" lon="-1.6315">
        <ele>60.8</ele>
        <time>2019-08-13T11:05:12Z</time>
      </trkpt>
      <trkpt lat="47.26773" lon="-1.63155">
        <ele>59.8</ele>
        <time>2019-08-13T11:05:08Z</time>
      </trkpt>
      <trkpt lat="47.26779" lon="-1.63159">
        <ele>58.8</ele>
        <time>2019-08-13T11:05:06Z</time>
      </trkpt>
      <trkpt lat="47.26792" lon="-1.63164">
        <ele>57.8</ele>
        <time>2019-08-13T11:05:02Z</time>
      </trkpt>
      <trkpt lat="47.26803" lon="-1.63169">
        <ele>56.6</ele>
        <time>2019-08-13T11:04:59Z</time>
      </trkpt>
      <trkpt lat="47.26813" lon="-1.63173">
        <ele>55.6</ele>
        <time>2019-08-13T11:04:57Z</time>
      </trkpt>
      <trkpt lat="47.26826" lon="-1.63182">
        <ele>54.2</ele>
        <time>2019-08-13T11:04:54Z</time>
      </trkpt>
      <trkpt lat="47.2687" lon="-1.63225">
        <ele>54</ele>
        <time>2019-08-13T11:04:41Z</time>
      </trkpt>
      <trkpt lat="47.26871" lon="-1.6323">
        <ele>54.2</ele>
        <time>2019-08-13T11:04:40Z</time>
      </trkpt>
      <trkpt lat="47.26878" lon="-1.63242">
        <ele>55.2</ele>
        <time>2019-08-13T11:04:34Z</time>
      </trkpt>
      <trkpt lat="47.26889" lon="-1.63254">
        <ele>56.2</ele>
        <time>2019-08-13T11:04:29Z</time>
      </trkpt>
      <trkpt lat="47.26889" lon="-1.63266">
        <ele>56.2</ele>
        <time>2019-08-13T11:04:27Z</time>
      </trkpt>
      <trkpt lat="47.26883" lon="-1.63287">
        <ele>57</ele>
        <time>2019-08-13T11:04:24Z</time>
      </trkpt>
      <trkpt lat="47.2688" lon="-1.63302">
        <ele>57.4</ele>
        <time>2019-08-13T11:04:22Z</time>
      </trkpt>
      <trkpt lat="47.26878" lon="-1.63322">
        <ele>58.8</ele>
        <time>2019-08-13T11:04:19Z</time>
      </trkpt>
      <trkpt lat="47.26881" lon="-1.63354">
        <ele>58.6</ele>
        <time>2019-08-13T11:04:13Z</time>
      </trkpt>
      <trkpt lat="47.26879" lon="-1.63357">
        <ele>58.6</ele>
        <time>2019-08-13T11:04:12Z</time>
      </trkpt>
      <trkpt lat="47.26876" lon="-1.63362">
        <ele>58.8</ele>
        <time>2019-08-13T11:04:10Z</time>
      </trkpt>
      <trkpt lat="47.26874" lon="-1.63371">
        <ele>59.6</ele>
        <time>2019-08-13T11:04:08Z</time>
      </trkpt>
      <trkpt lat="47.26874" lon="-1.63377">
        <ele>60.2</ele>
        <time>2019-08-13T11:04:07Z</time>
      </trkpt>
      <trkpt lat="47.26874" lon="-1.63383">
        <ele>60.8</ele>
        <time>2019-08-13T11:04:06Z</time>
      </trkpt>
      <trkpt lat="47.26875" lon="-1.63397">
        <ele>61.8</ele>
        <time>2019-08-13T11:04:04Z</time>
      </trkpt>
      <trkpt lat="47.26871" lon="-1.63424">
        <ele>61.8</ele>
        <time>2019-08-13T11:04:01Z</time>
      </trkpt>
      <trkpt lat="47.26869" lon="-1.63434">
        <ele>61.6</ele>
        <time>2019-08-13T11:04:00Z</time>
      </trkpt>
      <trkpt lat="47.2686" lon="-1.63475">
        <ele>61.2</ele>
        <time>2019-08-13T11:03:56Z</time>
      </trkpt>
      <trkpt lat="47.26852" lon="-1.63494">
        <ele>61.4</ele>
        <time>2019-08-13T11:03:54Z</time>
      </trkpt>
      <trkpt lat="47.2684" lon="-1.63534">
        <ele>61.6</ele>
        <time>2019-08-13T11:03:50Z</time>
      </trkpt>
      <trkpt lat="47.2681" lon="-1.63584">
        <ele>60.6</ele>
        <time>2019-08-13T11:03:43Z</time>
      </trkpt>
      <trkpt lat="47.26798" lon="-1.63595">
        <ele>60.6</ele>
        <time>2019-08-13T11:03:41Z</time>
      </trkpt>
      <trkpt lat="47.26771" lon="-1.63616">
        <ele>60.8</ele>
        <time>2019-08-13T11:03:37Z</time>
      </trkpt>
      <trkpt lat="47.26758" lon="-1.63632">
        <ele>60.8</ele>
        <time>2019-08-13T11:03:35Z</time>
      </trkpt>
      <trkpt lat="47.26753" lon="-1.63653">
        <ele>60.6</ele>
        <time>2019-08-13T11:03:33Z</time>
      </trkpt>
      <trkpt lat="47.26749" lon="-1.63666">
        <ele>59.4</ele>
        <time>2019-08-13T11:03:31Z</time>
      </trkpt>
      <trkpt lat="47.26749" lon="-1.63703">
        <ele>57.6</ele>
        <time>2019-08-13T11:03:26Z</time>
      </trkpt>
      <trkpt lat="47.26742" lon="-1.63717">
        <ele>58</ele>
        <time>2019-08-13T11:03:24Z</time>
      </trkpt>
      <trkpt lat="47.26741" lon="-1.63753">
        <ele>58</ele>
        <time>2019-08-13T11:03:22Z</time>
      </trkpt>
      <trkpt lat="47.26726" lon="-1.63833">
        <ele>58</ele>
        <time>2019-08-13T11:03:14Z</time>
      </trkpt>
      <trkpt lat="47.26726" lon="-1.63904">
        <ele>57.6</ele>
        <time>2019-08-13T11:03:04Z</time>
      </trkpt>
      <trkpt lat="47.26726" lon="-1.63912">
        <ele>58.4</ele>
        <time>2019-08-13T11:03:02Z</time>
      </trkpt>
      <trkpt lat="47.26728" lon="-1.63916">
        <ele>58.8</ele>
        <time>2019-08-13T11:03:01Z</time>
      </trkpt>
      <trkpt lat="47.2673" lon="-1.63919">
        <ele>59.4</ele>
        <time>2019-08-13T11:03:00Z</time>
      </trkpt>
      <trkpt lat="47.26731" lon="-1.63935">
        <ele>59.8</ele>
        <time>2019-08-13T11:02:55Z</time>
      </trkpt>
      <trkpt lat="47.26732" lon="-1.63945">
        <ele>58.6</ele>
        <time>2019-08-13T11:02:52Z</time>
      </trkpt>
      <trkpt lat="47.26732" lon="-1.63954">
        <ele>57.2</ele>
        <time>2019-08-13T11:02:49Z</time>
      </trkpt>
      <trkpt lat="47.26738" lon="-1.63982">
        <ele>56.2</ele>
        <time>2019-08-13T11:02:43Z</time>
      </trkpt>
      <trkpt lat="47.26739" lon="-1.6399">
        <ele>56</ele>
        <time>2019-08-13T11:02:40Z</time>
      </trkpt>
      <trkpt lat="47.26742" lon="-1.64002">
        <ele>55.4</ele>
        <time>2019-08-13T11:02:35Z</time>
      </trkpt>
      <trkpt lat="47.26762" lon="-1.64015">
        <ele>55.6</ele>
        <time>2019-08-13T11:02:29Z</time>
      </trkpt>
      <trkpt lat="47.26787" lon="-1.63998">
        <ele>55.6</ele>
        <time>2019-08-13T11:02:21Z</time>
      </trkpt>
      <trkpt lat="47.26821" lon="-1.63987">
        <ele>55</ele>
        <time>2019-08-13T11:02:12Z</time>
      </trkpt>
      <trkpt lat="47.26833" lon="-1.63989">
        <ele>55.8</ele>
        <time>2019-08-13T11:02:09Z</time>
      </trkpt>
      <trkpt lat="47.26836" lon="-1.63991">
        <ele>55.4</ele>
        <time>2019-08-13T11:02:07Z</time>
      </trkpt>
      <trkpt lat="47.26848" lon="-1.63994">
        <ele>55.6</ele>
        <time>2019-08-13T11:02:03Z</time>
      </trkpt>
      <trkpt lat="47.26853" lon="-1.63999">
        <ele>56.2</ele>
        <time>2019-08-13T11:02:01Z</time>
      </trkpt>
      <trkpt lat="47.26855" lon="-1.64011">
        <ele>57.2</ele>
        <time>2019-08-13T11:01:58Z</time>
      </trkpt>
      <trkpt lat="47.26854" lon="-1.64021">
        <ele>58.8</ele>
        <time>2019-08-13T11:01:56Z</time>
      </trkpt>
      <trkpt lat="47.26854" lon="-1.64026">
        <ele>59.8</ele>
        <time>2019-08-13T11:01:55Z</time>
      </trkpt>
      <trkpt lat="47.26854" lon="-1.64039">
        <ele>61.6</ele>
        <time>2019-08-13T11:01:53Z</time>
      </trkpt>
      <trkpt lat="47.26852" lon="-1.64047">
        <ele>62.4</ele>
        <time>2019-08-13T11:01:52Z</time>
      </trkpt>
      <trkpt lat="47.26851" lon="-1.6405">
        <ele>63</ele>
        <time>2019-08-13T11:01:51Z</time>
      </trkpt>
      <trkpt lat="47.26849" lon="-1.64058">
        <ele>64.2</ele>
        <time>2019-08-13T11:01:49Z</time>
      </trkpt>
      <trkpt lat="47.26846" lon="-1.64065">
        <ele>66</ele>
        <time>2019-08-13T11:01:47Z</time>
      </trkpt>
      <trkpt lat="47.26845" lon="-1.64069">
        <ele>67.6</ele>
        <time>2019-08-13T11:01:45Z</time>
      </trkpt>
      <trkpt lat="47.26843" lon="-1.64075">
        <ele>69.4</ele>
        <time>2019-08-13T11:01:43Z</time>
      </trkpt>
      <trkpt lat="47.26844" lon="-1.64078">
        <ele>70.4</ele>
        <time>2019-08-13T11:01:42Z</time>
      </trkpt>
      <trkpt lat="47.26843" lon="-1.64082">
        <ele>71</ele>
        <time>2019-08-13T11:01:41Z</time>
      </trkpt>
      <trkpt lat="47.26841" lon="-1.64092">
        <ele>72</ele>
        <time>2019-08-13T11:01:39Z</time>
      </trkpt>
      <trkpt lat="47.2684" lon="-1.64095">
        <ele>72.8</ele>
        <time>2019-08-13T11:01:38Z</time>
      </trkpt>
      <trkpt lat="47.26839" lon="-1.64097">
        <ele>73.4</ele>
        <time>2019-08-13T11:01:37Z</time>
      </trkpt>
      <trkpt lat="47.26837" lon="-1.641">
        <ele>74.2</ele>
        <time>2019-08-13T11:01:36Z</time>
      </trkpt>
      <trkpt lat="47.26832" lon="-1.64113">
        <ele>75.2</ele>
        <time>2019-08-13T11:01:34Z</time>
      </trkpt>
      <trkpt lat="47.26836" lon="-1.64139">
        <ele>75.8</ele>
        <time>2019-08-13T11:01:31Z</time>
      </trkpt>
      <trkpt lat="47.26834" lon="-1.64143">
        <ele>76.2</ele>
        <time>2019-08-13T11:01:30Z</time>
      </trkpt>
      <trkpt lat="47.26835" lon="-1.64177">
        <ele>77.8</ele>
        <time>2019-08-13T11:01:21Z</time>
      </trkpt>
      <trkpt lat="47.26847" lon="-1.64178">
        <ele>77.4</ele>
        <time>2019-08-13T11:01:15Z</time>
      </trkpt>
      <trkpt lat="47.26847" lon="-1.64179">
        <ele>77.6</ele>
        <time>2019-08-13T11:01:14Z</time>
      </trkpt>
      <trkpt lat="47.26846" lon="-1.64184">
        <ele>78.4</ele>
        <time>2019-08-13T11:01:12Z</time>
      </trkpt>
      <trkpt lat="47.26846" lon="-1.64199">
        <ele>79.2</ele>
        <time>2019-08-13T11:01:11Z</time>
      </trkpt>
      <trkpt lat="47.26845" lon="-1.64207">
        <ele>79.8</ele>
        <time>2019-08-13T11:01:10Z</time>
      </trkpt>
      <trkpt lat="47.26844" lon="-1.64225">
        <ele>81</ele>
        <time>2019-08-13T11:01:08Z</time>
      </trkpt>
      <trkpt lat="47.26843" lon="-1.64235">
        <ele>81.4</ele>
        <time>2019-08-13T11:01:07Z</time>
      </trkpt>
      <trkpt lat="47.26844" lon="-1.64261">
        <ele>82.2</ele>
        <time>2019-08-13T11:01:04Z</time>
      </trkpt>
      <trkpt lat="47.26844" lon="-1.64269">
        <ele>82.2</ele>
        <time>2019-08-13T11:01:03Z</time>
      </trkpt>
      <trkpt lat="47.26843" lon="-1.6428">
        <ele>82.4</ele>
        <time>2019-08-13T11:01:01Z</time>
      </trkpt>
      <trkpt lat="47.26826" lon="-1.64308">
        <ele>83</ele>
        <time>2019-08-13T11:00:52Z</time>
      </trkpt>
      <trkpt lat="47.26826" lon="-1.64312">
        <ele>83.2</ele>
        <time>2019-08-13T11:00:51Z</time>
      </trkpt>
      <trkpt lat="47.26827" lon="-1.64316">
        <ele>83.4</ele>
        <time>2019-08-13T11:00:50Z</time>
      </trkpt>
      <trkpt lat="47.2684" lon="-1.64349">
        <ele>84.2</ele>
        <time>2019-08-13T11:00:45Z</time>
      </trkpt>
      <trkpt lat="47.2685" lon="-1.64368">
        <ele>84.6</ele>
        <time>2019-08-13T11:00:41Z</time>
      </trkpt>
      <trkpt lat="47.26851" lon="-1.64381">
        <ele>84.2</ele>
        <time>2019-08-13T11:00:39Z</time>
      </trkpt>
      <trkpt lat="47.26855" lon="-1.64392">
        <ele>84.2</ele>
        <time>2019-08-13T11:00:37Z</time>
      </trkpt>
      <trkpt lat="47.26867" lon="-1.6442">
        <ele>83.8</ele>
        <time>2019-08-13T11:00:31Z</time>
      </trkpt>
      <trkpt lat="47.2687" lon="-1.6444">
        <ele>84.4</ele>
        <time>2019-08-13T11:00:28Z</time>
      </trkpt>
      <trkpt lat="47.26872" lon="-1.64452">
        <ele>84.6</ele>
        <time>2019-08-13T11:00:26Z</time>
      </trkpt>
      <trkpt lat="47.26876" lon="-1.6448">
        <ele>84.2</ele>
        <time>2019-08-13T11:00:24Z</time>
      </trkpt>
      <trkpt lat="47.26877" lon="-1.6449">
        <ele>83.4</ele>
        <time>2019-08-13T11:00:22Z</time>
      </trkpt>
      <trkpt lat="47.26877" lon="-1.64495">
        <ele>83</ele>
        <time>2019-08-13T11:00:21Z</time>
      </trkpt>
      <trkpt lat="47.26877" lon="-1.64495">
        <ele>82.2</ele>
        <time>2019-08-13T11:00:20Z</time>
      </trkpt>
      <trkpt lat="47.2688" lon="-1.64503">
        <ele>81.8</ele>
        <time>2019-08-13T11:00:19Z</time>
      </trkpt>
      <trkpt lat="47.26886" lon="-1.64504">
        <ele>80.4</ele>
        <time>2019-08-13T11:00:16Z</time>
      </trkpt>
      <trkpt lat="47.2689" lon="-1.64522">
        <ele>78.2</ele>
        <time>2019-08-13T11:00:11Z</time>
      </trkpt>
      <trkpt lat="47.26887" lon="-1.64563">
        <ele>78.4</ele>
        <time>2019-08-13T11:00:06Z</time>
      </trkpt>
      <trkpt lat="47.26883" lon="-1.6458">
        <ele>78.8</ele>
        <time>2019-08-13T11:00:04Z</time>
      </trkpt>
      <trkpt lat="47.2688" lon="-1.64595">
        <ele>79.4</ele>
        <time>2019-08-13T11:00:02Z</time>
      </trkpt>
      <trkpt lat="47.26879" lon="-1.64627">
        <ele>80</ele>
        <time>2019-08-13T10:59:58Z</time>
      </trkpt>
      <trkpt lat="47.26879" lon="-1.64642">
        <ele>79.8</ele>
        <time>2019-08-13T10:59:56Z</time>
      </trkpt>
      <trkpt lat="47.26879" lon="-1.64668">
        <ele>79</ele>
        <time>2019-08-13T10:59:52Z</time>
      </trkpt>
      <trkpt lat="47.26878" lon="-1.64693">
        <ele>78</ele>
        <time>2019-08-13T10:59:48Z</time>
      </trkpt>
      <trkpt lat="47.26873" lon="-1.64714">
        <ele>78.4</ele>
        <time>2019-08-13T10:59:45Z</time>
      </trkpt>
      <trkpt lat="47.26865" lon="-1.64744">
        <ele>78.6</ele>
        <time>2019-08-13T10:59:41Z</time>
      </trkpt>
      <trkpt lat="47.26858" lon="-1.64764">
        <ele>79.8</ele>
        <time>2019-08-13T10:59:38Z</time>
      </trkpt>
      <trkpt lat="47.26851" lon="-1.64778">
        <ele>80.2</ele>
        <time>2019-08-13T10:59:36Z</time>
      </trkpt>
      <trkpt lat="47.26845" lon="-1.64794">
        <ele>79.8</ele>
        <time>2019-08-13T10:59:34Z</time>
      </trkpt>
      <trkpt lat="47.2683" lon="-1.64832">
        <ele>78.8</ele>
        <time>2019-08-13T10:59:28Z</time>
      </trkpt>
      <trkpt lat="47.26826" lon="-1.64844">
        <ele>77.6</ele>
        <time>2019-08-13T10:59:25Z</time>
      </trkpt>
      <trkpt lat="47.26817" lon="-1.64874">
        <ele>76.2</ele>
        <time>2019-08-13T10:59:20Z</time>
      </trkpt>
      <trkpt lat="47.26814" lon="-1.64886">
        <ele>76</ele>
        <time>2019-08-13T10:59:18Z</time>
      </trkpt>
      <trkpt lat="47.26795" lon="-1.64907">
        <ele>76.6</ele>
        <time>2019-08-13T10:59:13Z</time>
      </trkpt>
      <trkpt lat="47.26767" lon="-1.64918">
        <ele>77.8</ele>
        <time>2019-08-13T10:59:07Z</time>
      </trkpt>
      <trkpt lat="47.26761" lon="-1.6492">
        <ele>77.8</ele>
        <time>2019-08-13T10:59:05Z</time>
      </trkpt>
      <trkpt lat="47.26756" lon="-1.64922">
        <ele>77.8</ele>
        <time>2019-08-13T10:59:03Z</time>
      </trkpt>
      <trkpt lat="47.26752" lon="-1.64925">
        <ele>77.6</ele>
        <time>2019-08-13T10:59:02Z</time>
      </trkpt>
      <trkpt lat="47.26746" lon="-1.64935">
        <ele>76.2</ele>
        <time>2019-08-13T10:58:59Z</time>
      </trkpt>
      <trkpt lat="47.26744" lon="-1.64957">
        <ele>75.8</ele>
        <time>2019-08-13T10:58:55Z</time>
      </trkpt>
      <trkpt lat="47.26747" lon="-1.64976">
        <ele>76.4</ele>
        <time>2019-08-13T10:58:54Z</time>
      </trkpt>
      <trkpt lat="47.26748" lon="-1.64988">
        <ele>77.4</ele>
        <time>2019-08-13T10:58:51Z</time>
      </trkpt>
      <trkpt lat="47.26748" lon="-1.64994">
        <ele>77</ele>
        <time>2019-08-13T10:58:50Z</time>
      </trkpt>
      <trkpt lat="47.2675" lon="-1.65008">
        <ele>76</ele>
        <time>2019-08-13T10:58:47Z</time>
      </trkpt>
      <trkpt lat="47.26751" lon="-1.6501">
        <ele>76.2</ele>
        <time>2019-08-13T10:58:46Z</time>
      </trkpt>
      <trkpt lat="47.26762" lon="-1.65032">
        <ele>77.4</ele>
        <time>2019-08-13T10:58:42Z</time>
      </trkpt>
      <trkpt lat="47.26759" lon="-1.65044">
        <ele>77.6</ele>
        <time>2019-08-13T10:58:40Z</time>
      </trkpt>
      <trkpt lat="47.2676" lon="-1.65047">
        <ele>77.6</ele>
        <time>2019-08-13T10:58:38Z</time>
      </trkpt>
      <trkpt lat="47.26761" lon="-1.65061">
        <ele>77.2</ele>
        <time>2019-08-13T10:58:32Z</time>
      </trkpt>
      <trkpt lat="47.26745" lon="-1.65102">
        <ele>77</ele>
        <time>2019-08-13T10:58:25Z</time>
      </trkpt>
      <trkpt lat="47.26715" lon="-1.65163">
        <ele>77.6</ele>
        <time>2019-08-13T10:58:13Z</time>
      </trkpt>
      <trkpt lat="47.26712" lon="-1.65168">
        <ele>77.2</ele>
        <time>2019-08-13T10:58:11Z</time>
      </trkpt>
      <trkpt lat="47.26708" lon="-1.65173">
        <ele>75.8</ele>
        <time>2019-08-13T10:58:08Z</time>
      </trkpt>
      <trkpt lat="47.26699" lon="-1.65178">
        <ele>75.8</ele>
        <time>2019-08-13T10:58:06Z</time>
      </trkpt>
      <trkpt lat="47.26697" lon="-1.65184">
        <ele>76.8</ele>
        <time>2019-08-13T10:58:03Z</time>
      </trkpt>
      <trkpt lat="47.26695" lon="-1.65191">
        <ele>77.8</ele>
        <time>2019-08-13T10:58:01Z</time>
      </trkpt>
      <trkpt lat="47.26694" lon="-1.65194">
        <ele>78.2</ele>
        <time>2019-08-13T10:58:00Z</time>
      </trkpt>
      <trkpt lat="47.26689" lon="-1.652">
        <ele>79</ele>
        <time>2019-08-13T10:57:58Z</time>
      </trkpt>
      <trkpt lat="47.26683" lon="-1.65203">
        <ele>79.2</ele>
        <time>2019-08-13T10:57:57Z</time>
      </trkpt>
      <trkpt lat="47.26672" lon="-1.65218">
        <ele>80</ele>
        <time>2019-08-13T10:57:54Z</time>
      </trkpt>
      <trkpt lat="47.26666" lon="-1.65242">
        <ele>81.4</ele>
        <time>2019-08-13T10:57:49Z</time>
      </trkpt>
      <trkpt lat="47.26661" lon="-1.65248">
        <ele>82</ele>
        <time>2019-08-13T10:57:47Z</time>
      </trkpt>
      <trkpt lat="47.26657" lon="-1.65248">
        <ele>82.4</ele>
        <time>2019-08-13T10:57:46Z</time>
      </trkpt>
      <trkpt lat="47.26646" lon="-1.6525">
        <ele>83.6</ele>
        <time>2019-08-13T10:57:44Z</time>
      </trkpt>
      <trkpt lat="47.26641" lon="-1.65251">
        <ele>83.8</ele>
        <time>2019-08-13T10:57:43Z</time>
      </trkpt>
      <trkpt lat="47.26637" lon="-1.65257">
        <ele>84.8</ele>
        <time>2019-08-13T10:57:41Z</time>
      </trkpt>
      <trkpt lat="47.26635" lon="-1.6526">
        <ele>85.8</ele>
        <time>2019-08-13T10:57:40Z</time>
      </trkpt>
      <trkpt lat="47.26631" lon="-1.65261">
        <ele>87.2</ele>
        <time>2019-08-13T10:57:39Z</time>
      </trkpt>
      <trkpt lat="47.26628" lon="-1.65261">
        <ele>88.4</ele>
        <time>2019-08-13T10:57:38Z</time>
      </trkpt>
      <trkpt lat="47.26616" lon="-1.65252">
        <ele>89.6</ele>
        <time>2019-08-13T10:57:35Z</time>
      </trkpt>
      <trkpt lat="47.26587" lon="-1.65244">
        <ele>90.6</ele>
        <time>2019-08-13T10:57:29Z</time>
      </trkpt>
      <trkpt lat="47.26578" lon="-1.65243">
        <ele>90.8</ele>
        <time>2019-08-13T10:57:27Z</time>
      </trkpt>
      <trkpt lat="47.26569" lon="-1.65247">
        <ele>91.6</ele>
        <time>2019-08-13T10:57:25Z</time>
      </trkpt>
      <trkpt lat="47.26564" lon="-1.65249">
        <ele>92.2</ele>
        <time>2019-08-13T10:57:24Z</time>
      </trkpt>
      <trkpt lat="47.26551" lon="-1.6525">
        <ele>92.8</ele>
        <time>2019-08-13T10:57:22Z</time>
      </trkpt>
      <trkpt lat="47.26529" lon="-1.65246">
        <ele>94</ele>
        <time>2019-08-13T10:57:19Z</time>
      </trkpt>
      <trkpt lat="47.26478" lon="-1.65235">
        <ele>95</ele>
        <time>2019-08-13T10:57:13Z</time>
      </trkpt>
      <trkpt lat="47.26471" lon="-1.65233">
        <ele>95.2</ele>
        <time>2019-08-13T10:57:12Z</time>
      </trkpt>
      <trkpt lat="47.26412" lon="-1.65222">
        <ele>96</ele>
        <time>2019-08-13T10:57:05Z</time>
      </trkpt>
      <trkpt lat="47.26404" lon="-1.6522">
        <ele>96.2</ele>
        <time>2019-08-13T10:57:04Z</time>
      </trkpt>
      <trkpt lat="47.2636" lon="-1.65215">
        <ele>97.2</ele>
        <time>2019-08-13T10:56:59Z</time>
      </trkpt>
      <trkpt lat="47.26312" lon="-1.65215">
        <ele>97.6</ele>
        <time>2019-08-13T10:56:53Z</time>
      </trkpt>
      <trkpt lat="47.26281" lon="-1.65221">
        <ele>98</ele>
        <time>2019-08-13T10:56:48Z</time>
      </trkpt>
      <trkpt lat="47.26265" lon="-1.65225">
        <ele>98.4</ele>
        <time>2019-08-13T10:56:43Z</time>
      </trkpt>
      <trkpt lat="47.26229" lon="-1.6523">
        <ele>100</ele>
        <time>2019-08-13T10:56:36Z</time>
      </trkpt>
      <trkpt lat="47.262" lon="-1.65224">
        <ele>100.4</ele>
        <time>2019-08-13T10:56:32Z</time>
      </trkpt>
      <trkpt lat="47.26186" lon="-1.65226">
        <ele>100.2</ele>
        <time>2019-08-13T10:56:30Z</time>
      </trkpt>
      <trkpt lat="47.26179" lon="-1.65228">
        <ele>100.2</ele>
        <time>2019-08-13T10:56:29Z</time>
      </trkpt>
      <trkpt lat="47.26126" lon="-1.65249">
        <ele>99.8</ele>
        <time>2019-08-13T10:56:22Z</time>
      </trkpt>
      <trkpt lat="47.26072" lon="-1.6527">
        <ele>99.8</ele>
        <time>2019-08-13T10:56:14Z</time>
      </trkpt>
      <trkpt lat="47.26019" lon="-1.65295">
        <ele>99.4</ele>
        <time>2019-08-13T10:56:06Z</time>
      </trkpt>
      <trkpt lat="47.2599" lon="-1.65346">
        <ele>99.8</ele>
        <time>2019-08-13T10:55:59Z</time>
      </trkpt>
      <trkpt lat="47.2597" lon="-1.65366">
        <ele>99.2</ele>
        <time>2019-08-13T10:55:55Z</time>
      </trkpt>
      <trkpt lat="47.25953" lon="-1.65375">
        <ele>99.4</ele>
        <time>2019-08-13T10:55:52Z</time>
      </trkpt>
      <trkpt lat="47.25941" lon="-1.65379">
        <ele>99.4</ele>
        <time>2019-08-13T10:55:50Z</time>
      </trkpt>
      <trkpt lat="47.25933" lon="-1.65388">
        <ele>99.2</ele>
        <time>2019-08-13T10:55:48Z</time>
      </trkpt>
      <trkpt lat="47.25933" lon="-1.65405">
        <ele>99.2</ele>
        <time>2019-08-13T10:55:46Z</time>
      </trkpt>
      <trkpt lat="47.25937" lon="-1.6542">
        <ele>99</ele>
        <time>2019-08-13T10:55:44Z</time>
      </trkpt>
      <trkpt lat="47.25938" lon="-1.6546">
        <ele>98.4</ele>
        <time>2019-08-13T10:55:37Z</time>
      </trkpt>
      <trkpt lat="47.25938" lon="-1.65478">
        <ele>98.2</ele>
        <time>2019-08-13T10:55:34Z</time>
      </trkpt>
      <trkpt lat="47.25916" lon="-1.65526">
        <ele>97.4</ele>
        <time>2019-08-13T10:55:25Z</time>
      </trkpt>
      <trkpt lat="47.25876" lon="-1.65593">
        <ele>96.4</ele>
        <time>2019-08-13T10:55:18Z</time>
      </trkpt>
      <trkpt lat="47.25855" lon="-1.65632">
        <ele>95.2</ele>
        <time>2019-08-13T10:55:14Z</time>
      </trkpt>
      <trkpt lat="47.25847" lon="-1.6565">
        <ele>94.4</ele>
        <time>2019-08-13T10:55:12Z</time>
      </trkpt>
      <trkpt lat="47.25842" lon="-1.65659">
        <ele>94</ele>
        <time>2019-08-13T10:55:11Z</time>
      </trkpt>
      <trkpt lat="47.25835" lon="-1.65678">
        <ele>93.6</ele>
        <time>2019-08-13T10:55:09Z</time>
      </trkpt>
      <trkpt lat="47.25826" lon="-1.65696">
        <ele>93.4</ele>
        <time>2019-08-13T10:55:07Z</time>
      </trkpt>
      <trkpt lat="47.25817" lon="-1.65716">
        <ele>93</ele>
        <time>2019-08-13T10:55:05Z</time>
      </trkpt>
      <trkpt lat="47.25807" lon="-1.65741">
        <ele>91.8</ele>
        <time>2019-08-13T10:55:02Z</time>
      </trkpt>
      <trkpt lat="47.25784" lon="-1.65799">
        <ele>90.6</ele>
        <time>2019-08-13T10:54:55Z</time>
      </trkpt>
      <trkpt lat="47.25763" lon="-1.65838">
        <ele>90</ele>
        <time>2019-08-13T10:54:51Z</time>
      </trkpt>
      <trkpt lat="47.25719" lon="-1.65908">
        <ele>89.6</ele>
        <time>2019-08-13T10:54:44Z</time>
      </trkpt>
      <trkpt lat="47.25715" lon="-1.65918">
        <ele>89.4</ele>
        <time>2019-08-13T10:54:43Z</time>
      </trkpt>
      <trkpt lat="47.25679" lon="-1.65979">
        <ele>88.4</ele>
        <time>2019-08-13T10:54:37Z</time>
      </trkpt>
      <trkpt lat="47.2566" lon="-1.66011">
        <ele>87.6</ele>
        <time>2019-08-13T10:54:34Z</time>
      </trkpt>
      <trkpt lat="47.25644" lon="-1.66045">
        <ele>87.2</ele>
        <time>2019-08-13T10:54:31Z</time>
      </trkpt>
      <trkpt lat="47.25626" lon="-1.6608">
        <ele>86.2</ele>
        <time>2019-08-13T10:54:28Z</time>
      </trkpt>
      <trkpt lat="47.25604" lon="-1.66126">
        <ele>85</ele>
        <time>2019-08-13T10:54:24Z</time>
      </trkpt>
      <trkpt lat="47.25583" lon="-1.66164">
        <ele>84</ele>
        <time>2019-08-13T10:54:20Z</time>
      </trkpt>
      <trkpt lat="47.25561" lon="-1.6621">
        <ele>82.8</ele>
        <time>2019-08-13T10:54:15Z</time>
      </trkpt>
      <trkpt lat="47.25555" lon="-1.66229">
        <ele>82.4</ele>
        <time>2019-08-13T10:54:13Z</time>
      </trkpt>
      <trkpt lat="47.25548" lon="-1.66249">
        <ele>82</ele>
        <time>2019-08-13T10:54:11Z</time>
      </trkpt>
      <trkpt lat="47.25539" lon="-1.66269">
        <ele>81.6</ele>
        <time>2019-08-13T10:54:09Z</time>
      </trkpt>
      <trkpt lat="47.25532" lon="-1.66287">
        <ele>80.6</ele>
        <time>2019-08-13T10:54:07Z</time>
      </trkpt>
      <trkpt lat="47.2552" lon="-1.66314">
        <ele>79.8</ele>
        <time>2019-08-13T10:54:04Z</time>
      </trkpt>
      <trkpt lat="47.25515" lon="-1.66332">
        <ele>79.6</ele>
        <time>2019-08-13T10:54:02Z</time>
      </trkpt>
      <trkpt lat="47.25509" lon="-1.66348">
        <ele>79.2</ele>
        <time>2019-08-13T10:54:00Z</time>
      </trkpt>
      <trkpt lat="47.25474" lon="-1.66389">
        <ele>78.6</ele>
        <time>2019-08-13T10:53:51Z</time>
      </trkpt>
      <trkpt lat="47.25461" lon="-1.6641">
        <ele>78.4</ele>
        <time>2019-08-13T10:53:48Z</time>
      </trkpt>
      <trkpt lat="47.25452" lon="-1.66424">
        <ele>78.2</ele>
        <time>2019-08-13T10:53:46Z</time>
      </trkpt>
      <trkpt lat="47.25436" lon="-1.66436">
        <ele>78</ele>
        <time>2019-08-13T10:53:44Z</time>
      </trkpt>
      <trkpt lat="47.25428" lon="-1.66452">
        <ele>77</ele>
        <time>2019-08-13T10:53:41Z</time>
      </trkpt>
      <trkpt lat="47.2542" lon="-1.66467">
        <ele>75.8</ele>
        <time>2019-08-13T10:53:38Z</time>
      </trkpt>
      <trkpt lat="47.25405" lon="-1.66482">
        <ele>74.8</ele>
        <time>2019-08-13T10:53:34Z</time>
      </trkpt>
      <trkpt lat="47.25383" lon="-1.66488">
        <ele>73.4</ele>
        <time>2019-08-13T10:53:28Z</time>
      </trkpt>
      <trkpt lat="47.25336" lon="-1.66508">
        <ele>71.6</ele>
        <time>2019-08-13T10:53:16Z</time>
      </trkpt>
      <trkpt lat="47.2533" lon="-1.66507">
        <ele>71.6</ele>
        <time>2019-08-13T10:53:12Z</time>
      </trkpt>
    </trkseg>
  </trk>
</gpx>